sensor_id;sensor_type;location;lat;lon;timestamp;temperature;humidity
17333;DHT22;8784;50.94667800;7.08448400;2022-07-06T00:00:46;19.20;61.90
17333;DHT22;8784;50.94667800;7.08448400;2022-07-06T00:03:16;19.10;61.90
17333;DHT22;8784;50.94667800;7.08448400;2022-07-06T00:05:43;19.10;61.80
17333;DHT22;8784;50.94667800;7.08448400;2022-07-06T00:08:11;19.00;61.90
17333;DHT22;8784;50.94667800;7.08448400;2022-07-06T00:10:51;19.00;61.90
17333;DHT22;8784;50.94667800;7.08448400;2022-07-06T00:13:19;18.90;61.90
17333;DHT22;8784;50.94667800;7.08448400;2022-07-06T00:15:49;18.80;62.00
17333;DHT22;8784;50.94667800;7.08448400;2022-07-06T00:18:18;18.70;62.00
17333;DHT22;8784;50.94667800;7.08448400;2022-07-06T00:20:45;18.70;62.30
17333;DHT22;8784;50.94667800;7.08448400;2022-07-06T00:23:12;18.60;62.50
17333;DHT22;8784;50.94667800;7.08448400;2022-07-06T00:25:39;18.50;62.60
17333;DHT22;8784;50.94667800;7.08448400;2022-07-06T00:28:06;18.40;62.80
17333;DHT22;8784;50.94667800;7.08448400;2022-07-06T00:30:33;18.40;63.20
17333;DHT22;8784;50.94667800;7.08448400;2022-07-06T00:33:00;18.30;63.20
17333;DHT22;8784;50.94667800;7.08448400;2022-07-06T00:35:28;18.30;63.40
17333;DHT22;8784;50.94667800;7.08448400;2022-07-06T00:37:55;18.20;63.50
17333;DHT22;8784;50.94667800;7.08448400;2022-07-06T00:40:22;18.10;63.70
17333;DHT22;8784;50.94667800;7.08448400;2022-07-06T00:42:49;18.10;63.80
17333;DHT22;8784;50.94667800;7.08448400;2022-07-06T00:45:17;18.00;63.80
17333;DHT22;8784;50.94667800;7.08448400;2022-07-06T00:47:45;18.00;63.90
17333;DHT22;8784;50.94667800;7.08448400;2022-07-06T00:50:14;17.90;64.00
17333;DHT22;8784;50.94667800;7.08448400;2022-07-06T00:52:43;17.90;63.90
17333;DHT22;8784;50.94667800;7.08448400;2022-07-06T00:55:12;17.80;63.80
17333;DHT22;8784;50.94667800;7.08448400;2022-07-06T00:57:40;17.70;63.90
17333;DHT22;8784;50.94667800;7.08448400;2022-07-06T01:00:09;17.70;63.90
17333;DHT22;8784;50.94667800;7.08448400;2022-07-06T01:02:36;17.70;64.00
17333;DHT22;8784;50.94667800;7.08448400;2022-07-06T01:05:04;17.60;63.90
17333;DHT22;8784;50.94667800;7.08448400;2022-07-06T01:07:31;17.60;64.20
17333;DHT22;8784;50.94667800;7.08448400;2022-07-06T01:10:01;17.50;64.30
17333;DHT22;8784;50.94667800;7.08448400;2022-07-06T01:12:30;17.40;64.40
17333;DHT22;8784;50.94667800;7.08448400;2022-07-06T01:14:57;17.40;64.60
17333;DHT22;8784;50.94667800;7.08448400;2022-07-06T01:17:25;17.30;64.70
17333;DHT22;8784;50.94667800;7.08448400;2022-07-06T01:19:52;17.30;64.80
17333;DHT22;8784;50.94667800;7.08448400;2022-07-06T01:22:20;17.30;65.00
17333;DHT22;8784;50.94667800;7.08448400;2022-07-06T01:24:47;17.20;65.10
17333;DHT22;8784;50.94667800;7.08448400;2022-07-06T01:27:14;17.10;64.90
17333;DHT22;8784;50.94667800;7.08448400;2022-07-06T01:29:41;17.10;65.30
17333;DHT22;8784;50.94667800;7.08448400;2022-07-06T01:32:08;17.00;66.20
17333;DHT22;8784;50.94667800;7.08448400;2022-07-06T01:34:35;17.00;65.50
17333;DHT22;8784;50.94667800;7.08448400;2022-07-06T01:37:02;17.00;65.60
17333;DHT22;8784;50.94667800;7.08448400;2022-07-06T01:39:30;16.90;65.60
17333;DHT22;8784;50.94667800;7.08448400;2022-07-06T01:41:59;16.80;65.50
17333;DHT22;8784;50.94667800;7.08448400;2022-07-06T01:44:26;16.80;65.50
17333;DHT22;8784;50.94667800;7.08448400;2022-07-06T01:46:56;16.70;65.70
17333;DHT22;8784;50.94667800;7.08448400;2022-07-06T01:49:23;16.60;66.00
17333;DHT22;8784;50.94667800;7.08448400;2022-07-06T01:51:50;16.50;66.20
17333;DHT22;8784;50.94667800;7.08448400;2022-07-06T01:54:17;16.40;66.30
17333;DHT22;8784;50.94667800;7.08448400;2022-07-06T01:56:45;16.30;67.20
17333;DHT22;8784;50.94667800;7.08448400;2022-07-06T01:59:12;16.30;66.70
17333;DHT22;8784;50.94667800;7.08448400;2022-07-06T02:01:42;16.30;67.10
17333;DHT22;8784;50.94667800;7.08448400;2022-07-06T02:04:09;16.30;67.30
17333;DHT22;8784;50.94667800;7.08448400;2022-07-06T02:06:36;16.20;67.40
17333;DHT22;8784;50.94667800;7.08448400;2022-07-06T02:09:03;16.20;67.50
17333;DHT22;8784;50.94667800;7.08448400;2022-07-06T02:11:30;16.20;67.60
17333;DHT22;8784;50.94667800;7.08448400;2022-07-06T02:13:58;16.20;67.70
17333;DHT22;8784;50.94667800;7.08448400;2022-07-06T02:16:25;16.10;67.50
17333;DHT22;8784;50.94667800;7.08448400;2022-07-06T02:18:52;16.10;67.60
17333;DHT22;8784;50.94667800;7.08448400;2022-07-06T02:21:21;16.10;67.80
17333;DHT22;8784;50.94667800;7.08448400;2022-07-06T02:23:48;16.10;67.70
17333;DHT22;8784;50.94667800;7.08448400;2022-07-06T02:26:15;16.00;67.90
17333;DHT22;8784;50.94667800;7.08448400;2022-07-06T02:28:42;16.00;68.10
17333;DHT22;8784;50.94667800;7.08448400;2022-07-06T02:31:12;15.90;68.10
17333;DHT22;8784;50.94667800;7.08448400;2022-07-06T02:33:39;15.90;68.20
17333;DHT22;8784;50.94667800;7.08448400;2022-07-06T02:36:06;15.80;68.30
17333;DHT22;8784;50.94667800;7.08448400;2022-07-06T02:38:33;15.70;68.40
17333;DHT22;8784;50.94667800;7.08448400;2022-07-06T02:41:00;15.70;68.60
17333;DHT22;8784;50.94667800;7.08448400;2022-07-06T02:43:27;15.70;68.90
17333;DHT22;8784;50.94667800;7.08448400;2022-07-06T02:45:54;15.60;68.80
17333;DHT22;8784;50.94667800;7.08448400;2022-07-06T02:48:23;15.60;69.20
17333;DHT22;8784;50.94667800;7.08448400;2022-07-06T02:50:49;15.50;69.50
17333;DHT22;8784;50.94667800;7.08448400;2022-07-06T02:53:17;15.50;69.50
17333;DHT22;8784;50.94667800;7.08448400;2022-07-06T02:55:45;15.50;69.40
17333;DHT22;8784;50.94667800;7.08448400;2022-07-06T02:58:12;15.40;69.50
17333;DHT22;8784;50.94667800;7.08448400;2022-07-06T03:00:41;15.30;70.00
17333;DHT22;8784;50.94667800;7.08448400;2022-07-06T03:03:08;15.30;70.00
17333;DHT22;8784;50.94667800;7.08448400;2022-07-06T03:05:37;15.30;70.40
17333;DHT22;8784;50.94667800;7.08448400;2022-07-06T03:08:04;15.30;70.30
17333;DHT22;8784;50.94667800;7.08448400;2022-07-06T03:10:31;15.20;70.60
17333;DHT22;8784;50.94667800;7.08448400;2022-07-06T03:12:58;15.20;70.80
17333;DHT22;8784;50.94667800;7.08448400;2022-07-06T03:15:25;15.20;70.80
17333;DHT22;8784;50.94667800;7.08448400;2022-07-06T03:17:52;15.20;70.90
17333;DHT22;8784;50.94667800;7.08448400;2022-07-06T03:20:19;15.20;71.10
17333;DHT22;8784;50.94667800;7.08448400;2022-07-06T03:22:47;15.20;71.00
17333;DHT22;8784;50.94667800;7.08448400;2022-07-06T03:25:14;15.20;71.30
17333;DHT22;8784;50.94667800;7.08448400;2022-07-06T03:27:41;15.20;71.40
17333;DHT22;8784;50.94667800;7.08448400;2022-07-06T03:30:09;15.20;71.50
17333;DHT22;8784;50.94667800;7.08448400;2022-07-06T03:32:38;15.10;71.60
17333;DHT22;8784;50.94667800;7.08448400;2022-07-06T03:35:06;15.10;71.60
17333;DHT22;8784;50.94667800;7.08448400;2022-07-06T03:37:33;15.20;71.80
17333;DHT22;8784;50.94667800;7.08448400;2022-07-06T03:40:01;15.10;71.80
17333;DHT22;8784;50.94667800;7.08448400;2022-07-06T03:42:31;15.10;71.80
17333;DHT22;8784;50.94667800;7.08448400;2022-07-06T03:44:58;15.10;72.00
17333;DHT22;8784;50.94667800;7.08448400;2022-07-06T03:47:25;15.10;71.80
17333;DHT22;8784;50.94667800;7.08448400;2022-07-06T03:49:52;15.00;71.70
17333;DHT22;8784;50.94667800;7.08448400;2022-07-06T03:52:19;15.00;72.00
17333;DHT22;8784;50.94667800;7.08448400;2022-07-06T03:54:46;15.00;72.30
17333;DHT22;8784;50.94667800;7.08448400;2022-07-06T03:57:14;15.00;72.40
17333;DHT22;8784;50.94667800;7.08448400;2022-07-06T03:59:42;15.00;73.20
17333;DHT22;8784;50.94667800;7.08448400;2022-07-06T04:02:09;15.00;72.40
17333;DHT22;8784;50.94667800;7.08448400;2022-07-06T04:04:36;15.00;72.60
17333;DHT22;8784;50.94667800;7.08448400;2022-07-06T04:07:03;15.00;72.70
17333;DHT22;8784;50.94667800;7.08448400;2022-07-06T04:09:30;15.00;72.80
17333;DHT22;8784;50.94667800;7.08448400;2022-07-06T04:11:57;15.00;72.80
17333;DHT22;8784;50.94667800;7.08448400;2022-07-06T04:14:25;15.00;73.00
17333;DHT22;8784;50.94667800;7.08448400;2022-07-06T04:16:52;15.00;73.00
17333;DHT22;8784;50.94667800;7.08448400;2022-07-06T04:19:22;14.90;73.20
17333;DHT22;8784;50.94667800;7.08448400;2022-07-06T04:21:49;14.90;73.30
17333;DHT22;8784;50.94667800;7.08448400;2022-07-06T04:24:15;14.90;73.60
17333;DHT22;8784;50.94667800;7.08448400;2022-07-06T04:26:42;15.00;73.70
17333;DHT22;8784;50.94667800;7.08448400;2022-07-06T04:29:09;15.00;73.90
17333;DHT22;8784;50.94667800;7.08448400;2022-07-06T04:31:37;15.00;73.80
17333;DHT22;8784;50.94667800;7.08448400;2022-07-06T04:34:04;15.10;74.80
17333;DHT22;8784;50.94667800;7.08448400;2022-07-06T04:36:34;15.10;74.00
17333;DHT22;8784;50.94667800;7.08448400;2022-07-06T04:39:01;15.20;74.10
17333;DHT22;8784;50.94667800;7.08448400;2022-07-06T04:41:28;15.20;74.00
17333;DHT22;8784;50.94667800;7.08448400;2022-07-06T04:43:55;15.20;74.20
17333;DHT22;8784;50.94667800;7.08448400;2022-07-06T04:46:22;15.30;74.10
17333;DHT22;8784;50.94667800;7.08448400;2022-07-06T04:48:51;15.30;74.20
17333;DHT22;8784;50.94667800;7.08448400;2022-07-06T04:51:18;15.30;74.20
17333;DHT22;8784;50.94667800;7.08448400;2022-07-06T04:53:45;15.30;74.30
17333;DHT22;8784;50.94667800;7.08448400;2022-07-06T04:56:12;15.40;74.50
17333;DHT22;8784;50.94667800;7.08448400;2022-07-06T04:58:39;15.30;74.50
17333;DHT22;8784;50.94667800;7.08448400;2022-07-06T05:01:06;15.40;74.60
17333;DHT22;8784;50.94667800;7.08448400;2022-07-06T05:03:34;15.40;74.80
17333;DHT22;8784;50.94667800;7.08448400;2022-07-06T05:06:07;15.40;74.90
17333;DHT22;8784;50.94667800;7.08448400;2022-07-06T05:08:34;15.40;75.00
17333;DHT22;8784;50.94667800;7.08448400;2022-07-06T05:11:01;15.40;75.30
17333;DHT22;8784;50.94667800;7.08448400;2022-07-06T05:13:28;15.40;75.30
17333;DHT22;8784;50.94667800;7.08448400;2022-07-06T05:15:55;15.50;75.50
17333;DHT22;8784;50.94667800;7.08448400;2022-07-06T05:18:22;15.40;75.70
17333;DHT22;8784;50.94667800;7.08448400;2022-07-06T05:20:49;15.50;75.90
17333;DHT22;8784;50.94667800;7.08448400;2022-07-06T05:23:17;15.50;76.00
17333;DHT22;8784;50.94667800;7.08448400;2022-07-06T05:25:44;15.50;76.00
17333;DHT22;8784;50.94667800;7.08448400;2022-07-06T05:28:13;15.60;76.20
17333;DHT22;8784;50.94667800;7.08448400;2022-07-06T05:30:40;15.60;76.10
17333;DHT22;8784;50.94667800;7.08448400;2022-07-06T05:33:06;15.70;76.10
17333;DHT22;8784;50.94667800;7.08448400;2022-07-06T05:35:33;15.80;76.30
17333;DHT22;8784;50.94667800;7.08448400;2022-07-06T05:38:00;15.80;76.30
17333;DHT22;8784;50.94667800;7.08448400;2022-07-06T05:40:29;15.90;76.60
17333;DHT22;8784;50.94667800;7.08448400;2022-07-06T05:42:56;15.90;76.50
17333;DHT22;8784;50.94667800;7.08448400;2022-07-06T05:45:23;16.00;76.70
17333;DHT22;8784;50.94667800;7.08448400;2022-07-06T05:47:50;16.10;76.90
17333;DHT22;8784;50.94667800;7.08448400;2022-07-06T05:50:34;16.10;77.00
17333;DHT22;8784;50.94667800;7.08448400;2022-07-06T05:53:05;16.30;77.00
17333;DHT22;8784;50.94667800;7.08448400;2022-07-06T05:55:34;16.30;76.80
17333;DHT22;8784;50.94667800;7.08448400;2022-07-06T05:58:01;16.40;77.00
17333;DHT22;8784;50.94667800;7.08448400;2022-07-06T06:00:28;16.50;76.80
17333;DHT22;8784;50.94667800;7.08448400;2022-07-06T06:02:55;16.60;76.80
17333;DHT22;8784;50.94667800;7.08448400;2022-07-06T06:05:22;16.70;76.80
17333;DHT22;8784;50.94667800;7.08448400;2022-07-06T06:07:52;16.80;76.80
17333;DHT22;8784;50.94667800;7.08448400;2022-07-06T06:10:20;16.90;76.60
17333;DHT22;8784;50.94667800;7.08448400;2022-07-06T06:12:49;17.10;76.70
17333;DHT22;8784;50.94667800;7.08448400;2022-07-06T06:15:16;17.20;76.50
17333;DHT22;8784;50.94667800;7.08448400;2022-07-06T06:17:44;17.40;76.40
17333;DHT22;8784;50.94667800;7.08448400;2022-07-06T06:20:14;17.50;76.10
17333;DHT22;8784;50.94667800;7.08448400;2022-07-06T06:22:46;17.70;75.90
17333;DHT22;8784;50.94667800;7.08448400;2022-07-06T06:25:13;17.80;75.50
17333;DHT22;8784;50.94667800;7.08448400;2022-07-06T06:27:40;18.00;75.50
17333;DHT22;8784;50.94667800;7.08448400;2022-07-06T06:30:09;18.20;75.50
17333;DHT22;8784;50.94667800;7.08448400;2022-07-06T06:32:36;18.30;74.80
17333;DHT22;8784;50.94667800;7.08448400;2022-07-06T06:35:04;18.50;74.60
17333;DHT22;8784;50.94667800;7.08448400;2022-07-06T06:37:31;18.60;74.20
17333;DHT22;8784;50.94667800;7.08448400;2022-07-06T06:39:59;18.70;74.20
17333;DHT22;8784;50.94667800;7.08448400;2022-07-06T06:42:26;18.80;74.30
17333;DHT22;8784;50.94667800;7.08448400;2022-07-06T06:44:53;18.90;74.10
17333;DHT22;8784;50.94667800;7.08448400;2022-07-06T06:47:21;19.00;73.30
17333;DHT22;8784;50.94667800;7.08448400;2022-07-06T06:49:48;19.10;73.20
17333;DHT22;8784;50.94667800;7.08448400;2022-07-06T06:52:15;19.10;73.00
17333;DHT22;8784;50.94667800;7.08448400;2022-07-06T06:54:42;19.00;72.80
17333;DHT22;8784;50.94667800;7.08448400;2022-07-06T06:57:09;19.00;73.00
17333;DHT22;8784;50.94667800;7.08448400;2022-07-06T06:59:39;19.20;73.30
17333;DHT22;8784;50.94667800;7.08448400;2022-07-06T07:02:06;19.30;73.20
17333;DHT22;8784;50.94667800;7.08448400;2022-07-06T07:04:34;19.40;72.90
17333;DHT22;8784;50.94667800;7.08448400;2022-07-06T07:07:04;19.50;72.80
17333;DHT22;8784;50.94667800;7.08448400;2022-07-06T07:09:31;19.50;72.60
17333;DHT22;8784;50.94667800;7.08448400;2022-07-06T07:12:00;19.50;72.30
17333;DHT22;8784;50.94667800;7.08448400;2022-07-06T07:14:27;19.40;72.10
17333;DHT22;8784;50.94667800;7.08448400;2022-07-06T07:16:54;19.40;72.10
17333;DHT22;8784;50.94667800;7.08448400;2022-07-06T07:19:21;19.60;72.10
17333;DHT22;8784;50.94667800;7.08448400;2022-07-06T07:21:52;19.80;72.00
17333;DHT22;8784;50.94667800;7.08448400;2022-07-06T07:24:19;20.00;71.80
17333;DHT22;8784;50.94667800;7.08448400;2022-07-06T07:26:46;20.10;71.40
17333;DHT22;8784;50.94667800;7.08448400;2022-07-06T07:29:13;20.20;70.70
17333;DHT22;8784;50.94667800;7.08448400;2022-07-06T07:31:40;20.10;70.40
17333;DHT22;8784;50.94667800;7.08448400;2022-07-06T07:34:08;20.10;70.30
17333;DHT22;8784;50.94667800;7.08448400;2022-07-06T07:36:35;20.10;70.00
17333;DHT22;8784;50.94667800;7.08448400;2022-07-06T07:39:04;20.40;70.20
17333;DHT22;8784;50.94667800;7.08448400;2022-07-06T07:41:31;20.50;69.80
17333;DHT22;8784;50.94667800;7.08448400;2022-07-06T07:43:58;20.60;69.30
17333;DHT22;8784;50.94667800;7.08448400;2022-07-06T07:46:25;20.80;69.00
17333;DHT22;8784;50.94667800;7.08448400;2022-07-06T07:48:52;20.90;68.60
17333;DHT22;8784;50.94667800;7.08448400;2022-07-06T07:51:19;21.00;68.40
17333;DHT22;8784;50.94667800;7.08448400;2022-07-06T07:53:46;20.80;67.60
17333;DHT22;8784;50.94667800;7.08448400;2022-07-06T07:56:17;20.70;67.60
17333;DHT22;8784;50.94667800;7.08448400;2022-07-06T07:58:44;20.50;67.50
17333;DHT22;8784;50.94667800;7.08448400;2022-07-06T08:01:11;20.30;67.30
17333;DHT22;8784;50.94667800;7.08448400;2022-07-06T08:03:38;20.20;67.50
17333;DHT22;8784;50.94667800;7.08448400;2022-07-06T08:06:05;20.10;67.60
17333;DHT22;8784;50.94667800;7.08448400;2022-07-06T08:08:32;20.00;67.70
17333;DHT22;8784;50.94667800;7.08448400;2022-07-06T08:10:59;20.30;67.90
17333;DHT22;8784;50.94667800;7.08448400;2022-07-06T08:13:28;20.50;67.90
17333;DHT22;8784;50.94667800;7.08448400;2022-07-06T08:15:55;20.60;67.00
17333;DHT22;8784;50.94667800;7.08448400;2022-07-06T08:18:26;20.60;66.80
17333;DHT22;8784;50.94667800;7.08448400;2022-07-06T08:20:53;20.50;66.60
17333;DHT22;8784;50.94667800;7.08448400;2022-07-06T08:23:22;20.40;66.70
17333;DHT22;8784;50.94667800;7.08448400;2022-07-06T08:25:50;20.40;67.10
17333;DHT22;8784;50.94667800;7.08448400;2022-07-06T08:28:17;20.30;67.20
17333;DHT22;8784;50.94667800;7.08448400;2022-07-06T08:30:46;20.20;67.30
17333;DHT22;8784;50.94667800;7.08448400;2022-07-06T08:33:13;20.10;67.70
17333;DHT22;8784;50.94667800;7.08448400;2022-07-06T08:35:42;20.10;67.70
17333;DHT22;8784;50.94667800;7.08448400;2022-07-06T08:38:10;20.00;67.90
17333;DHT22;8784;50.94667800;7.08448400;2022-07-06T08:40:38;20.00;68.10
17333;DHT22;8784;50.94667800;7.08448400;2022-07-06T08:43:06;20.00;67.90
17333;DHT22;8784;50.94667800;7.08448400;2022-07-06T08:45:34;20.00;67.90
17333;DHT22;8784;50.94667800;7.08448400;2022-07-06T08:48:06;20.00;67.80
17333;DHT22;8784;50.94667800;7.08448400;2022-07-06T08:50:33;20.10;68.10
17333;DHT22;8784;50.94667800;7.08448400;2022-07-06T08:53:00;20.20;68.00
17333;DHT22;8784;50.94667800;7.08448400;2022-07-06T08:55:28;20.60;67.90
17333;DHT22;8784;50.94667800;7.08448400;2022-07-06T08:57:57;21.40;67.60
17333;DHT22;8784;50.94667800;7.08448400;2022-07-06T09:00:32;22.10;67.00
17333;DHT22;8784;50.94667800;7.08448400;2022-07-06T09:02:59;23.30;66.30
17333;DHT22;8784;50.94667800;7.08448400;2022-07-06T09:05:29;24.50;65.00
17333;DHT22;8784;50.94667800;7.08448400;2022-07-06T09:07:57;25.50;63.60
17333;DHT22;8784;50.94667800;7.08448400;2022-07-06T09:10:24;25.90;62.10
17333;DHT22;8784;50.94667800;7.08448400;2022-07-06T09:12:51;26.50;60.00
17333;DHT22;8784;50.94667800;7.08448400;2022-07-06T09:15:22;27.00;58.90
17333;DHT22;8784;50.94667800;7.08448400;2022-07-06T09:17:55;27.40;59.00
17333;DHT22;8784;50.94667800;7.08448400;2022-07-06T09:20:23;27.80;58.50
17333;DHT22;8784;50.94667800;7.08448400;2022-07-06T09:22:57;28.30;57.80
17333;DHT22;8784;50.94667800;7.08448400;2022-07-06T09:25:25;28.40;57.00
17333;DHT22;8784;50.94667800;7.08448400;2022-07-06T09:27:54;28.70;55.30
17333;DHT22;8784;50.94667800;7.08448400;2022-07-06T09:30:22;28.50;55.40
17333;DHT22;8784;50.94667800;7.08448400;2022-07-06T09:32:50;27.90;55.60
17333;DHT22;8784;50.94667800;7.08448400;2022-07-06T09:35:25;27.30;55.60
17333;DHT22;8784;50.94667800;7.08448400;2022-07-06T09:38:05;26.70;55.90
17333;DHT22;8784;50.94667800;7.08448400;2022-07-06T09:40:33;26.20;55.80
17333;DHT22;8784;50.94667800;7.08448400;2022-07-06T09:43:08;25.70;56.30
17333;DHT22;8784;50.94667800;7.08448400;2022-07-06T09:45:35;25.20;56.60
17333;DHT22;8784;50.94667800;7.08448400;2022-07-06T09:48:06;24.80;57.40
17333;DHT22;8784;50.94667800;7.08448400;2022-07-06T09:50:39;24.40;57.30
17333;DHT22;8784;50.94667800;7.08448400;2022-07-06T09:53:08;24.00;57.50
17333;DHT22;8784;50.94667800;7.08448400;2022-07-06T09:55:37;23.70;57.70
17333;DHT22;8784;50.94667800;7.08448400;2022-07-06T09:58:05;23.60;57.90
17333;DHT22;8784;50.94667800;7.08448400;2022-07-06T10:00:31;23.50;57.80
17333;DHT22;8784;50.94667800;7.08448400;2022-07-06T10:02:59;23.40;57.40
17333;DHT22;8784;50.94667800;7.08448400;2022-07-06T10:05:27;23.40;56.90
17333;DHT22;8784;50.94667800;7.08448400;2022-07-06T10:07:57;23.20;57.10
17333;DHT22;8784;50.94667800;7.08448400;2022-07-06T10:10:28;23.40;57.10
17333;DHT22;8784;50.94667800;7.08448400;2022-07-06T10:12:56;23.70;57.10
17333;DHT22;8784;50.94667800;7.08448400;2022-07-06T10:15:25;23.70;56.80
17333;DHT22;8784;50.94667800;7.08448400;2022-07-06T10:17:53;23.60;56.50
17333;DHT22;8784;50.94667800;7.08448400;2022-07-06T10:20:21;23.50;57.00
17333;DHT22;8784;50.94667800;7.08448400;2022-07-06T10:22:50;23.40;56.90
17333;DHT22;8784;50.94667800;7.08448400;2022-07-06T10:25:18;23.30;57.00
17333;DHT22;8784;50.94667800;7.08448400;2022-07-06T10:27:47;23.40;57.10
17333;DHT22;8784;50.94667800;7.08448400;2022-07-06T10:30:15;23.40;57.00
17333;DHT22;8784;50.94667800;7.08448400;2022-07-06T10:32:44;23.40;56.50
17333;DHT22;8784;50.94667800;7.08448400;2022-07-06T10:35:12;23.90;56.50
17333;DHT22;8784;50.94667800;7.08448400;2022-07-06T10:37:42;24.40;56.10
17333;DHT22;8784;50.94667800;7.08448400;2022-07-06T10:40:10;24.90;55.70
17333;DHT22;8784;50.94667800;7.08448400;2022-07-06T10:43:00;25.70;55.90
17333;DHT22;8784;50.94667800;7.08448400;2022-07-06T10:45:49;26.20;54.80
17333;DHT22;8784;50.94667800;7.08448400;2022-07-06T10:48:20;26.40;54.20
17333;DHT22;8784;50.94667800;7.08448400;2022-07-06T10:50:50;26.50;54.40
17333;DHT22;8784;50.94667800;7.08448400;2022-07-06T10:53:28;26.70;54.00
17333;DHT22;8784;50.94667800;7.08448400;2022-07-06T10:55:58;27.00;53.70
17333;DHT22;8784;50.94667800;7.08448400;2022-07-06T10:58:37;27.20;53.00
17333;DHT22;8784;50.94667800;7.08448400;2022-07-06T11:01:06;27.40;52.40
17333;DHT22;8784;50.94667800;7.08448400;2022-07-06T11:03:40;27.50;52.90
17333;DHT22;8784;50.94667800;7.08448400;2022-07-06T11:06:10;27.40;53.30
17333;DHT22;8784;50.94667800;7.08448400;2022-07-06T11:08:56;27.60;53.30
17333;DHT22;8784;50.94667800;7.08448400;2022-07-06T11:11:26;27.70;52.00
17333;DHT22;8784;50.94667800;7.08448400;2022-07-06T11:13:57;27.80;52.10
17333;DHT22;8784;50.94667800;7.08448400;2022-07-06T11:16:27;27.90;51.90
17333;DHT22;8784;50.94667800;7.08448400;2022-07-06T11:19:07;27.90;51.50
17333;DHT22;8784;50.94667800;7.08448400;2022-07-06T11:21:37;27.80;52.20
17333;DHT22;8784;50.94667800;7.08448400;2022-07-06T11:24:06;27.60;52.50
17333;DHT22;8784;50.94667800;7.08448400;2022-07-06T11:26:36;27.60;52.40
17333;DHT22;8784;50.94667800;7.08448400;2022-07-06T11:29:05;27.60;52.50
17333;DHT22;8784;50.94667800;7.08448400;2022-07-06T11:31:34;27.40;52.50
17333;DHT22;8784;50.94667800;7.08448400;2022-07-06T11:34:03;27.30;52.50
17333;DHT22;8784;50.94667800;7.08448400;2022-07-06T11:36:31;27.20;52.10
17333;DHT22;8784;50.94667800;7.08448400;2022-07-06T11:38:58;27.10;51.90
17333;DHT22;8784;50.94667800;7.08448400;2022-07-06T11:41:28;27.10;51.60
17333;DHT22;8784;50.94667800;7.08448400;2022-07-06T11:43:55;26.90;51.90
17333;DHT22;8784;50.94667800;7.08448400;2022-07-06T11:46:25;26.80;51.60
17333;DHT22;8784;50.94667800;7.08448400;2022-07-06T11:48:54;26.70;51.10
17333;DHT22;8784;50.94667800;7.08448400;2022-07-06T11:51:23;26.70;51.30
17333;DHT22;8784;50.94667800;7.08448400;2022-07-06T11:53:53;26.50;51.00
17333;DHT22;8784;50.94667800;7.08448400;2022-07-06T11:56:20;26.30;51.40
17333;DHT22;8784;50.94667800;7.08448400;2022-07-06T11:58:52;26.20;51.50
17333;DHT22;8784;50.94667800;7.08448400;2022-07-06T12:01:20;26.00;51.30
17333;DHT22;8784;50.94667800;7.08448400;2022-07-06T12:03:50;25.80;51.40
17333;DHT22;8784;50.94667800;7.08448400;2022-07-06T12:06:19;25.60;51.30
17333;DHT22;8784;50.94667800;7.08448400;2022-07-06T12:08:48;25.50;51.60
17333;DHT22;8784;50.94667800;7.08448400;2022-07-06T12:11:23;25.50;51.70
17333;DHT22;8784;50.94667800;7.08448400;2022-07-06T12:13:54;25.40;51.70
17333;DHT22;8784;50.94667800;7.08448400;2022-07-06T12:16:26;25.50;51.60
17333;DHT22;8784;50.94667800;7.08448400;2022-07-06T12:18:56;25.70;51.70
17333;DHT22;8784;50.94667800;7.08448400;2022-07-06T12:21:24;25.70;51.50
17333;DHT22;8784;50.94667800;7.08448400;2022-07-06T12:23:52;25.90;51.00
17333;DHT22;8784;50.94667800;7.08448400;2022-07-06T12:26:22;25.90;50.30
17333;DHT22;8784;50.94667800;7.08448400;2022-07-06T12:28:59;25.90;50.30
17333;DHT22;8784;50.94667800;7.08448400;2022-07-06T12:31:34;25.80;50.00
17333;DHT22;8784;50.94667800;7.08448400;2022-07-06T12:34:03;25.60;49.90
17333;DHT22;8784;50.94667800;7.08448400;2022-07-06T12:36:31;25.50;50.20
17333;DHT22;8784;50.94667800;7.08448400;2022-07-06T12:38:59;25.20;50.10
17333;DHT22;8784;50.94667800;7.08448400;2022-07-06T12:41:28;25.00;50.20
17333;DHT22;8784;50.94667800;7.08448400;2022-07-06T12:44:06;24.90;50.60
17333;DHT22;8784;50.94667800;7.08448400;2022-07-06T12:46:35;24.90;50.60
17333;DHT22;8784;50.94667800;7.08448400;2022-07-06T12:49:12;24.80;50.70
17333;DHT22;8784;50.94667800;7.08448400;2022-07-06T12:51:54;24.70;50.70
17333;DHT22;8784;50.94667800;7.08448400;2022-07-06T12:54:22;24.70;51.00
17333;DHT22;8784;50.94667800;7.08448400;2022-07-06T12:57:10;24.70;51.60
17333;DHT22;8784;50.94667800;7.08448400;2022-07-06T12:59:41;24.70;51.70
17333;DHT22;8784;50.94667800;7.08448400;2022-07-06T13:02:16;24.80;52.10
17333;DHT22;8784;50.94667800;7.08448400;2022-07-06T13:04:54;24.90;52.00
17333;DHT22;8784;50.94667800;7.08448400;2022-07-06T13:07:22;24.80;51.90
17333;DHT22;8784;50.94667800;7.08448400;2022-07-06T13:09:49;24.80;51.80
17333;DHT22;8784;50.94667800;7.08448400;2022-07-06T13:12:16;24.80;52.00
17333;DHT22;8784;50.94667800;7.08448400;2022-07-06T13:14:45;24.80;51.90
17333;DHT22;8784;50.94667800;7.08448400;2022-07-06T13:17:12;24.80;52.00
17333;DHT22;8784;50.94667800;7.08448400;2022-07-06T13:19:39;24.90;52.30
17333;DHT22;8784;50.94667800;7.08448400;2022-07-06T13:22:07;24.90;52.10
17333;DHT22;8784;50.94667800;7.08448400;2022-07-06T13:24:35;24.90;51.70
17333;DHT22;8784;50.94667800;7.08448400;2022-07-06T13:27:04;24.80;51.50
17333;DHT22;8784;50.94667800;7.08448400;2022-07-06T13:29:31;24.60;51.80
17333;DHT22;8784;50.94667800;7.08448400;2022-07-06T13:31:59;24.50;52.00
17333;DHT22;8784;50.94667800;7.08448400;2022-07-06T13:34:26;24.50;51.90
17333;DHT22;8784;50.94667800;7.08448400;2022-07-06T13:36:53;24.50;52.30
17333;DHT22;8784;50.94667800;7.08448400;2022-07-06T13:39:22;24.50;51.90
17333;DHT22;8784;50.94667800;7.08448400;2022-07-06T13:41:49;24.50;51.90